< < Back
Terminal Aerodrome Forecast


Current Version              Previous Versions:   1  2  3  4  5  6  7  8  9  

Terminal Aerodrome Forecast

147
FTUS44 KBMX 021729
TAFMGM
TAF
KMGM 021729Z 0218/0318 22007KT P6SM SHRA VCTS BKN040CB
      TEMPO 0218/0222 4SM TSRA BKN025CB OVC040
     FM030000 20005KT P6SM SHRA VCTS BKN040CB OVC100
     FM030300 23005KT P6SM VCSH BKN050 OVC100
     FM030600 27004KT 5SM BR SCT007 BKN015=

Latest METAR

603
SAUS80 KWBC 021900 RRA
MTRMGM
METAR KMGM 021853Z 30007KT 6SM -RA FEW033 SCT041 BKN050 25/19 A2998 RMK
AO2 LTG DSNT NE RAE03B28 SLP149 P0002 T02500194


USA.gov is the U.S. government's official web portal to all federal, state and local government web resources and services.